sensor_id;sensor_type;location;lat;lon;timestamp;temperature;humidity
53643;DHT22;39546;45.534;12.048;2022-08-01T00:04:35;29.30;51.40
53643;DHT22;39546;45.534;12.048;2022-08-01T00:10:37;29.40;51.50
53643;DHT22;39546;45.534;12.048;2022-08-01T00:16:39;29.40;51.90
53643;DHT22;39546;45.534;12.048;2022-08-01T00:22:41;29.40;52.20
53643;DHT22;39546;45.534;12.048;2022-08-01T00:28:43;29.30;52.10
53643;DHT22;39546;45.534;12.048;2022-08-01T00:34:45;29.20;52.20
53643;DHT22;39546;45.534;12.048;2022-08-01T00:40:48;29.10;52.60
53643;DHT22;39546;45.534;12.048;2022-08-01T00:46:50;29.20;52.90
53643;DHT22;39546;45.534;12.048;2022-08-01T00:52:52;29.20;53.20
53643;DHT22;39546;45.534;12.048;2022-08-01T00:58:55;29.20;53.10
53643;DHT22;39546;45.534;12.048;2022-08-01T01:04:57;29.10;53.10
53643;DHT22;39546;45.534;12.048;2022-08-01T01:11:13;29.00;53.40
53643;DHT22;39546;45.534;12.048;2022-08-01T01:17:24;29.00;53.60
53643;DHT22;39546;45.534;12.048;2022-08-01T01:30:08;28.80;54.40
53643;DHT22;39546;45.534;12.048;2022-08-01T01:36:11;28.80;54.70
53643;DHT22;39546;45.534;12.048;2022-08-01T01:42:17;28.80;55.00
53643;DHT22;39546;45.534;12.048;2022-08-01T01:48:20;28.60;55.50
53643;DHT22;39546;45.534;12.048;2022-08-01T01:54:28;28.60;55.50
53643;DHT22;39546;45.534;12.048;2022-08-01T02:00:32;28.60;55.60
53643;DHT22;39546;45.534;12.048;2022-08-01T02:06:35;28.60;55.50
53643;DHT22;39546;45.534;12.048;2022-08-01T02:12:42;28.50;55.80
53643;DHT22;39546;45.534;12.048;2022-08-01T02:18:46;28.40;55.70
53643;DHT22;39546;45.534;12.048;2022-08-01T02:25:06;28.40;55.80
53643;DHT22;39546;45.534;12.048;2022-08-01T02:31:15;28.40;55.90
53643;DHT22;39546;45.534;12.048;2022-08-01T02:37:19;28.20;55.80
53643;DHT22;39546;45.534;12.048;2022-08-01T02:43:24;28.10;56.10
53643;DHT22;39546;45.534;12.048;2022-08-01T02:49:48;28.10;55.90
53643;DHT22;39546;45.534;12.048;2022-08-01T02:55:52;28.00;56.10
53643;DHT22;39546;45.534;12.048;2022-08-01T03:01:56;28.00;56.30
53643;DHT22;39546;45.534;12.048;2022-08-01T03:07:59;28.00;56.30
53643;DHT22;39546;45.534;12.048;2022-08-01T03:14:04;27.90;56.80
53643;DHT22;39546;45.534;12.048;2022-08-01T03:20:12;27.90;56.80
53643;DHT22;39546;45.534;12.048;2022-08-01T03:26:14;27.80;56.90
53643;DHT22;39546;45.534;12.048;2022-08-01T03:32:18;27.80;57.00
53643;DHT22;39546;45.534;12.048;2022-08-01T03:38:57;27.80;57.00
53643;DHT22;39546;45.534;12.048;2022-08-01T03:45:04;27.70;57.00
53643;DHT22;39546;45.534;12.048;2022-08-01T03:51:09;27.60;57.30
53643;DHT22;39546;45.534;12.048;2022-08-01T03:57:12;27.70;57.20
53643;DHT22;39546;45.534;12.048;2022-08-01T04:03:15;27.60;57.30
53643;DHT22;39546;45.534;12.048;2022-08-01T04:09:18;27.70;57.50
53643;DHT22;39546;45.534;12.048;2022-08-01T04:15:20;27.60;57.30
53643;DHT22;39546;45.534;12.048;2022-08-01T04:21:24;27.60;57.30
53643;DHT22;39546;45.534;12.048;2022-08-01T04:28:00;27.50;57.70
53643;DHT22;39546;45.534;12.048;2022-08-01T04:34:06;27.30;57.50
53643;DHT22;39546;45.534;12.048;2022-08-01T04:40:09;27.30;57.60
53643;DHT22;39546;45.534;12.048;2022-08-01T04:46:12;27.30;57.50
53643;DHT22;39546;45.534;12.048;2022-08-01T04:52:14;27.20;57.50
53643;DHT22;39546;45.534;12.048;2022-08-01T04:58:20;27.20;57.40
53643;DHT22;39546;45.534;12.048;2022-08-01T05:04:22;27.10;57.40
53643;DHT22;39546;45.534;12.048;2022-08-01T05:10:25;27.10;57.30
53643;DHT22;39546;45.534;12.048;2022-08-01T05:16:27;27.00;57.50
53643;DHT22;39546;45.534;12.048;2022-08-01T05:22:29;27.00;57.30
53643;DHT22;39546;45.534;12.048;2022-08-01T05:28:31;27.30;57.50
53643;DHT22;39546;45.534;12.048;2022-08-01T05:34:35;27.40;57.20
53643;DHT22;39546;45.534;12.048;2022-08-01T05:40:37;27.40;57.70
53643;DHT22;39546;45.534;12.048;2022-08-01T05:46:39;27.60;57.70
53643;DHT22;39546;45.534;12.048;2022-08-01T05:52:41;27.60;57.80
53643;DHT22;39546;45.534;12.048;2022-08-01T05:58:44;27.70;58.10
53643;DHT22;39546;45.534;12.048;2022-08-01T06:04:46;27.80;58.00
53643;DHT22;39546;45.534;12.048;2022-08-01T06:10:49;27.90;57.90
53643;DHT22;39546;45.534;12.048;2022-08-01T06:17:05;28.00;58.40
53643;DHT22;39546;45.534;12.048;2022-08-01T06:23:08;28.10;58.30
53643;DHT22;39546;45.534;12.048;2022-08-01T06:29:10;28.30;57.70
53643;DHT22;39546;45.534;12.048;2022-08-01T06:35:32;28.60;57.10
53643;DHT22;39546;45.534;12.048;2022-08-01T06:41:35;28.80;56.90
53643;DHT22;39546;45.534;12.048;2022-08-01T06:47:39;28.90;57.00
53643;DHT22;39546;45.534;12.048;2022-08-01T06:53:42;28.90;56.70
53643;DHT22;39546;45.534;12.048;2022-08-01T06:59:44;29.10;56.40
53643;DHT22;39546;45.534;12.048;2022-08-01T07:05:47;29.20;56.20
53643;DHT22;39546;45.534;12.048;2022-08-01T07:11:49;29.30;56.10
53643;DHT22;39546;45.534;12.048;2022-08-01T07:17:54;29.30;56.10
53643;DHT22;39546;45.534;12.048;2022-08-01T07:23:56;29.50;56.10
53643;DHT22;39546;45.534;12.048;2022-08-01T07:29:58;29.50;56.40
53643;DHT22;39546;45.534;12.048;2022-08-01T07:36:00;29.60;56.30
53643;DHT22;39546;45.534;12.048;2022-08-01T07:42:03;29.70;56.40
53643;DHT22;39546;45.534;12.048;2022-08-01T07:48:10;29.70;56.20
53643;DHT22;39546;45.534;12.048;2022-08-01T07:54:13;29.80;56.20
53643;DHT22;39546;45.534;12.048;2022-08-01T08:00:15;29.90;56.60
53643;DHT22;39546;45.534;12.048;2022-08-01T08:06:32;30.00;56.70
53643;DHT22;39546;45.534;12.048;2022-08-01T08:12:35;30.10;56.40
53643;DHT22;39546;45.534;12.048;2022-08-01T08:18:38;30.10;56.10
53643;DHT22;39546;45.534;12.048;2022-08-01T08:24:40;30.30;55.90
53643;DHT22;39546;45.534;12.048;2022-08-01T08:30:43;30.40;55.60
53643;DHT22;39546;45.534;12.048;2022-08-01T08:36:45;30.50;55.30
53643;DHT22;39546;45.534;12.048;2022-08-01T08:42:47;30.60;54.90
53643;DHT22;39546;45.534;12.048;2022-08-01T08:48:51;30.70;54.70
53643;DHT22;39546;45.534;12.048;2022-08-01T08:54:53;30.90;54.20
53643;DHT22;39546;45.534;12.048;2022-08-01T09:00:57;31.00;53.90
53643;DHT22;39546;45.534;12.048;2022-08-01T09:07:00;31.10;53.20
53643;DHT22;39546;45.534;12.048;2022-08-01T09:13:10;31.20;52.20
53643;DHT22;39546;45.534;12.048;2022-08-01T09:19:18;31.20;51.40
53643;DHT22;39546;45.534;12.048;2022-08-01T09:25:59;31.40;50.90
53643;DHT22;39546;45.534;12.048;2022-08-01T09:32:05;31.70;50.30
53643;DHT22;39546;45.534;12.048;2022-08-01T09:44:25;31.90;49.10
53643;DHT22;39546;45.534;12.048;2022-08-01T09:50:42;32.00;48.90
53643;DHT22;39546;45.534;12.048;2022-08-01T09:56:44;32.20;48.20
53643;DHT22;39546;45.534;12.048;2022-08-01T10:02:47;32.20;47.80
53643;DHT22;39546;45.534;12.048;2022-08-01T10:08:49;32.30;47.90
53643;DHT22;39546;45.534;12.048;2022-08-01T10:14:51;32.40;48.20
53643;DHT22;39546;45.534;12.048;2022-08-01T10:20:57;32.60;48.60
53643;DHT22;39546;45.534;12.048;2022-08-01T10:27:05;32.90;48.20
53643;DHT22;39546;45.534;12.048;2022-08-01T10:33:08;33.10;48.00
53643;DHT22;39546;45.534;12.048;2022-08-01T10:39:23;33.30;47.80
53643;DHT22;39546;45.534;12.048;2022-08-01T10:45:31;33.40;47.50
53643;DHT22;39546;45.534;12.048;2022-08-01T10:51:37;33.60;47.00
53643;DHT22;39546;45.534;12.048;2022-08-01T10:57:45;33.90;46.60
53643;DHT22;39546;45.534;12.048;2022-08-01T11:10:43;34.20;45.60
53643;DHT22;39546;45.534;12.048;2022-08-01T11:16:44;34.40;44.90
53643;DHT22;39546;45.534;12.048;2022-08-01T11:29:14;34.80;43.50
53643;DHT22;39546;45.534;12.048;2022-08-01T11:35:17;35.10;42.90
53643;DHT22;39546;45.534;12.048;2022-08-01T11:41:29;35.40;42.60
53643;DHT22;39546;45.534;12.048;2022-08-01T11:47:54;35.60;42.30
53643;DHT22;39546;45.534;12.048;2022-08-01T11:53:57;35.80;41.90
53643;DHT22;39546;45.534;12.048;2022-08-01T12:00:10;36.00;41.80
53643;DHT22;39546;45.534;12.048;2022-08-01T12:06:13;36.10;41.80
53643;DHT22;39546;45.534;12.048;2022-08-01T12:12:16;36.10;42.20
53643;DHT22;39546;45.534;12.048;2022-08-01T12:18:19;36.30;41.70
53643;DHT22;39546;45.534;12.048;2022-08-01T12:24:22;36.30;41.40
53643;DHT22;39546;45.534;12.048;2022-08-01T12:30:24;36.30;41.30
53643;DHT22;39546;45.534;12.048;2022-08-01T12:36:30;36.30;41.20
53643;DHT22;39546;45.534;12.048;2022-08-01T12:42:32;36.30;40.80
53643;DHT22;39546;45.534;12.048;2022-08-01T12:49:26;36.30;40.50
53643;DHT22;39546;45.534;12.048;2022-08-01T12:55:28;36.30;40.40
53643;DHT22;39546;45.534;12.048;2022-08-01T13:01:43;36.30;40.20
53643;DHT22;39546;45.534;12.048;2022-08-01T13:13:51;36.10;39.90
53643;DHT22;39546;45.534;12.048;2022-08-01T13:19:53;36.00;40.00
53643;DHT22;39546;45.534;12.048;2022-08-01T13:25:56;35.90;40.60
53643;DHT22;39546;45.534;12.048;2022-08-01T13:38:15;35.90;40.50
53643;DHT22;39546;45.534;12.048;2022-08-01T13:44:17;35.90;40.60
53643;DHT22;39546;45.534;12.048;2022-08-01T13:50:35;35.80;41.30
53643;DHT22;39546;45.534;12.048;2022-08-01T13:56:40;35.70;40.70
53643;DHT22;39546;45.534;12.048;2022-08-01T14:02:43;35.80;40.70
53643;DHT22;39546;45.534;12.048;2022-08-01T14:08:45;35.90;40.30
53643;DHT22;39546;45.534;12.048;2022-08-01T14:14:47;35.80;40.70
53643;DHT22;39546;45.534;12.048;2022-08-01T14:21:08;35.80;40.70
53643;DHT22;39546;45.534;12.048;2022-08-01T14:27:10;35.90;40.40
53643;DHT22;39546;45.534;12.048;2022-08-01T14:33:13;35.70;40.80
53643;DHT22;39546;45.534;12.048;2022-08-01T14:39:24;35.60;41.20
53643;DHT22;39546;45.534;12.048;2022-08-01T14:45:27;35.60;41.10
53643;DHT22;39546;45.534;12.048;2022-08-01T14:51:29;35.60;41.00
53643;DHT22;39546;45.534;12.048;2022-08-01T14:57:36;35.40;41.20
53643;DHT22;39546;45.534;12.048;2022-08-01T15:03:38;35.40;41.00
53643;DHT22;39546;45.534;12.048;2022-08-01T15:09:41;35.40;40.60
53643;DHT22;39546;45.534;12.048;2022-08-01T15:15:43;35.40;40.80
53643;DHT22;39546;45.534;12.048;2022-08-01T15:22:21;35.30;40.50
53643;DHT22;39546;45.534;12.048;2022-08-01T15:28:24;35.40;40.00
53643;DHT22;39546;45.534;12.048;2022-08-01T15:34:27;35.40;40.20
53643;DHT22;39546;45.534;12.048;2022-08-01T15:40:29;35.50;39.80
53643;DHT22;39546;45.534;12.048;2022-08-01T15:46:35;35.40;40.00
53643;DHT22;39546;45.534;12.048;2022-08-01T15:52:39;35.50;39.90
53643;DHT22;39546;45.534;12.048;2022-08-01T15:58:41;35.40;40.00
53643;DHT22;39546;45.534;12.048;2022-08-01T16:05:05;35.50;40.40
53643;DHT22;39546;45.534;12.048;2022-08-01T16:11:07;35.50;39.80
53643;DHT22;39546;45.534;12.048;2022-08-01T16:17:10;35.40;39.60
53643;DHT22;39546;45.534;12.048;2022-08-01T16:23:30;35.40;40.00
53643;DHT22;39546;45.534;12.048;2022-08-01T16:29:32;35.40;39.50
53643;DHT22;39546;45.534;12.048;2022-08-01T16:35:37;35.40;39.50
53643;DHT22;39546;45.534;12.048;2022-08-01T16:41:39;35.40;39.10
53643;DHT22;39546;45.534;12.048;2022-08-01T16:48:02;35.30;39.40
53643;DHT22;39546;45.534;12.048;2022-08-01T16:54:05;35.20;39.70
53643;DHT22;39546;45.534;12.048;2022-08-01T17:00:12;35.10;40.10
53643;DHT22;39546;45.534;12.048;2022-08-01T17:06:15;35.10;39.70
53643;DHT22;39546;45.534;12.048;2022-08-01T17:12:17;35.10;39.80
53643;DHT22;39546;45.534;12.048;2022-08-01T17:18:19;35.10;39.90
53643;DHT22;39546;45.534;12.048;2022-08-01T17:24:21;35.10;39.80
53643;DHT22;39546;45.534;12.048;2022-08-01T17:30:30;35.10;40.60
53643;DHT22;39546;45.534;12.048;2022-08-01T17:36:33;35.00;41.50
53643;DHT22;39546;45.534;12.048;2022-08-01T17:42:35;35.10;41.90
53643;DHT22;39546;45.534;12.048;2022-08-01T17:48:37;35.60;42.00
53643;DHT22;39546;45.534;12.048;2022-08-01T17:54:39;36.20;40.90
53643;DHT22;39546;45.534;12.048;2022-08-01T18:00:42;37.00;40.10
53643;DHT22;39546;45.534;12.048;2022-08-01T18:06:44;37.40;39.50
53643;DHT22;39546;45.534;12.048;2022-08-01T18:12:46;37.50;39.20
53643;DHT22;39546;45.534;12.048;2022-08-01T18:18:48;37.00;39.80
53643;DHT22;39546;45.534;12.048;2022-08-01T18:24:51;36.10;41.20
53643;DHT22;39546;45.534;12.048;2022-08-01T18:30:56;35.20;42.70
53643;DHT22;39546;45.534;12.048;2022-08-01T18:36:59;34.50;43.70
53643;DHT22;39546;45.534;12.048;2022-08-01T18:43:01;34.10;44.50
53643;DHT22;39546;45.534;12.048;2022-08-01T18:49:05;33.80;45.00
53643;DHT22;39546;45.534;12.048;2022-08-01T18:55:07;33.50;45.50
53643;DHT22;39546;45.534;12.048;2022-08-01T19:01:10;33.30;46.10
53643;DHT22;39546;45.534;12.048;2022-08-01T19:07:14;33.10;46.40
53643;DHT22;39546;45.534;12.048;2022-08-01T19:13:16;33.10;46.40
53643;DHT22;39546;45.534;12.048;2022-08-01T19:19:18;33.10;46.30
53643;DHT22;39546;45.534;12.048;2022-08-01T19:25:21;33.00;46.40
53643;DHT22;39546;45.534;12.048;2022-08-01T19:31:26;32.90;47.00
53643;DHT22;39546;45.534;12.048;2022-08-01T19:37:30;32.40;48.50
53643;DHT22;39546;45.534;12.048;2022-08-01T19:43:35;32.20;49.50
53643;DHT22;39546;45.534;12.048;2022-08-01T19:49:40;32.20;49.60
53643;DHT22;39546;45.534;12.048;2022-08-01T19:55:44;32.10;49.70
53643;DHT22;39546;45.534;12.048;2022-08-01T20:01:49;32.00;50.00
53643;DHT22;39546;45.534;12.048;2022-08-01T20:07:53;31.90;50.10
53643;DHT22;39546;45.534;12.048;2022-08-01T20:13:56;31.80;50.20
53643;DHT22;39546;45.534;12.048;2022-08-01T20:20:00;31.80;50.70
53643;DHT22;39546;45.534;12.048;2022-08-01T20:26:03;31.80;50.80
53643;DHT22;39546;45.534;12.048;2022-08-01T20:32:06;31.80;51.10
53643;DHT22;39546;45.534;12.048;2022-08-01T20:38:08;31.70;51.30
53643;DHT22;39546;45.534;12.048;2022-08-01T20:44:12;31.80;51.20
53643;DHT22;39546;45.534;12.048;2022-08-01T20:50:16;31.70;51.20
53643;DHT22;39546;45.534;12.048;2022-08-01T21:03:06;31.60;51.40
53643;DHT22;39546;45.534;12.048;2022-08-01T21:09:13;31.60;51.50
53643;DHT22;39546;45.534;12.048;2022-08-01T21:15:28;31.50;51.90
53643;DHT22;39546;45.534;12.048;2022-08-01T21:21:32;31.50;51.70
53643;DHT22;39546;45.534;12.048;2022-08-01T21:27:38;31.50;51.60
53643;DHT22;39546;45.534;12.048;2022-08-01T21:33:41;31.50;51.50
53643;DHT22;39546;45.534;12.048;2022-08-01T21:39:45;31.40;51.90
53643;DHT22;39546;45.534;12.048;2022-08-01T21:45:48;31.30;52.40
53643;DHT22;39546;45.534;12.048;2022-08-01T21:51:58;31.30;52.60
53643;DHT22;39546;45.534;12.048;2022-08-01T22:04:13;31.10;52.50
53643;DHT22;39546;45.534;12.048;2022-08-01T22:10:18;31.00;52.70
53643;DHT22;39546;45.534;12.048;2022-08-01T22:16:21;30.90;52.50
53643;DHT22;39546;45.534;12.048;2022-08-01T22:22:26;30.80;52.60
53643;DHT22;39546;45.534;12.048;2022-08-01T22:28:29;30.80;52.90
53643;DHT22;39546;45.534;12.048;2022-08-01T22:34:34;30.80;53.20
53643;DHT22;39546;45.534;12.048;2022-08-01T22:41:15;30.70;53.30
53643;DHT22;39546;45.534;12.048;2022-08-01T22:47:31;30.70;53.20
53643;DHT22;39546;45.534;12.048;2022-08-01T23:00:06;30.60;53.20
53643;DHT22;39546;45.534;12.048;2022-08-01T23:06:11;30.50;53.40
53643;DHT22;39546;45.534;12.048;2022-08-01T23:12:14;30.40;53.70
53643;DHT22;39546;45.534;12.048;2022-08-01T23:18:20;30.30;54.20
53643;DHT22;39546;45.534;12.048;2022-08-01T23:24:23;30.30;54.30
53643;DHT22;39546;45.534;12.048;2022-08-01T23:30:28;30.30;54.70
53643;DHT22;39546;45.534;12.048;2022-08-01T23:36:30;30.10;55.20
53643;DHT22;39546;45.534;12.048;2022-08-01T23:42:32;29.90;55.80
53643;DHT22;39546;45.534;12.048;2022-08-01T23:48:36;30.00;55.90
53643;DHT22;39546;45.534;12.048;2022-08-01T23:54:38;29.90;56.10
